Kezdőlap
METAR-TAF:

METAR-TAF

Repülőterek :

Fiume, Horvátország

földrajzi szélesség: 45-13N, földrajzi hosszúság: 014-35E, magasság: 85 m

Jelenlegi meteorológiai megfigyelések

A jelentés 19 perccel ezelõtt készült, 02:30 UTC
Különbözõ irányokból fújó szél 2 kt
Hőmérséklet 24°C
Páratartalom 54%
Légköri nyomás 1015 hPa
Látótávolság 10 km, vagy több
felhőtlen 1500 m magasságban, és nincs gomolyfelhõ

METAR: LDRI 210230Z VRB02KT CAVOK 24/14 Q1015

Idő: 04:49 (02:49 UTC)

Előrejelzés

A jelentés 3 órával és 24 perccel ezelõtt készült, 23:25 UTC
Az előrejelzés 21-én 00 óra UTC és 22-én 00 óra UTC között érvényes
Kelet-északkeleti szél 6 kt
Látótávolság 10 km, vagy több
felhőtlen 1500 m magasságban, és nincs gomolyfelhõ
21-én 11 óra UTC és 21-én 18 óra UTC között ideiglenes
Délkeleti szél 6 kt

TAF: LDRI 202325Z 2100/2200 06006KT CAVOK TX34/2112Z TN24/2103Z TEMPO 2111/2118 14006KT

Meteorológiai megfigyelések és előrejelzések több, mint 4000 repülőtéren (METAR és TAF jelentéseket).

A térképen piros és sárga pontok jelzik az elérhető meteorológiai állomásokat.

Mozgassa az egeret a pont fölött, hogy megjelenjen az állomás neve.

Azután kattintson az időjárási megfigyelések és előrejelzések megtekintéséhez.

A térkép megváltoztatása: kattintson a fekete keresztel jelölt zöld gombra ráközelítéshez, a vonallal jelölt zöld gombra távolításhoz, vagy a zöld nyilakra a szomszédos térképek eléréséhez.


METAR-TAF: